Skip Navigation Links Skip Navigation Links

Current Weather

Niagara Falls Intl, Niagara Falls, N.Y.

For information only: do not use for flight planning or navigation.
Latest weather
Observation time Monday, October 18, 2021 4:53 PM EDT
Local time Monday, October 18, 2021 5:07 PM EDT
Flight conditions Visual Meteorological Conditions
Winds
Wind direction West-Northwest (300°)
Wind speed 7 mph
Visibility 10 mi.
Sky condition
Ceiling 6,500 ft. broken clouds
Cloud layer broken clouds 6,500 ft.
Cloud layer broken clouds 7,500 ft.
Temperature 55°F
Dewpoint 39°F
Altimeter 30.00 in.Hg
Pressure change last 3 hours0.00 in.Hg
Pressure rising more quickly
Precipitation
Precipitation last 3 hours trace
Derived measurements
Relative humidity 55%
Density altitude 358 ft.
Sea-level pressure 30.02 in.Hg
Remarks
System requires maintenance.
Automated weather observing station with precipitation discriminator.
METAR KIAG 182053Z 30006KT 10SM BKN065 BKN075 13/04 A3000 RMK AO2 SLP165 60000 T01280039 53001 $

Settings

Location code

InnerDrive.Weather 4.0.6770.0 Release CLR 4.0.30319.42000
Copyright ©2018 Inner Drive Technology. All rights reserved. Portions Copyright ©1986-2018 David Braverman.

Find weather

Site navigation


Skip Navigation Links

Place info

Page info

PayPal - The safer, easier way to pay online!

Return home.

Copyright ©2021 Inner Drive Technology. Purveyors of fine, hand-crafted computer software. Page printed 2021-10-18T21:07:02 UTC.